• Join FlightAware (Why Join?)
  • Login
  • US Flag 
02:32PM EST


 

Airport Tracker/Info


-or-


 

Live Flight TrackerFlight Track Log ✈ VH-OWA ✈ 01-May-2013 ✈ YPJT / JAD - YPPD / PHE

Flight Track Log - Related Links

Times and Time Zones

All times are in EDT time to prevent confusion due to time zone crossing. See the VH-OWA flight status page for this flight to view local times or setup timezone preferences in your user account.

Time Position Orientation Groundspeed Altitude Reporting Facility
EDT Latitude Longitude Course Direction KTS MPH feet Rate Location/Type
04:15AM -32.0849 115.8493 323° Northwest 92 106 1,400  Level Aus ATC (RADAR)
04:16AM -32.0776 115.8430 323° Northwest 97 112 1,800 1,500 Climbing Aus ATC (RADAR)
04:16AM -32.0651 115.8283 315° West 110 127 2,800 1,680 Climbing Aus ATC (RADAR)
04:17AM -32.0545 115.7978 292° West 111 128 4,400 1,620 Climbing Aus ATC (RADAR)
04:18AM -32.0477 115.7787 293° West 110 127 5,300 1,500 Climbing Aus ATC (RADAR)
04:19AM -32.0379 115.7502 292° West 114 131 6,600 1,500 Climbing Aus ATC (RADAR)
04:19AM -32.0308 115.7303 293° West 114 131 7,500 1,500 Climbing Aus ATC (RADAR)
04:21AM -32.0133 115.6811 293° West 109 125 9,700 1,500 Climbing Aus ATC (RADAR)
04:21AM -32.0104 115.6728 293° West 109 125 10,100 1,440 Climbing Aus ATC (RADAR)
04:22AM -32.0035 115.6537 293° West 109 125 10,900 1,320 Climbing Aus ATC (RADAR)
04:22AM -31.9947 115.6280 292° West 112 129 11,900 1,260 Climbing Aus ATC (RADAR)
04:23AM -31.9866 115.6056 293° West 112 129 12,700 1,200 Climbing Aus ATC (RADAR)
04:24AM -31.9765 115.5772 293° West 112 129 13,700 1,080 Climbing Aus ATC (RADAR)
04:24AM -31.9692 115.5571 293° West 113 130 14,300 960 Climbing Aus ATC (RADAR)
04:26AM -31.9481 115.5248 308° West 114 131 15,400 900 Climbing Aus ATC (RADAR)
04:26AM -31.9389 115.5270 12° North 122 140 15,600 840 Climbing Aus ATC (RADAR)
04:26AM -31.9167 115.5332 13° North 136 157 16,100 840 Climbing Aus ATC (RADAR)
04:27AM -31.8781 115.5429 12° North 140 161 17,000 900 Climbing Aus ATC (RADAR)
04:28AM -31.8524 115.5495 12° North 141 162 17,600 780 Climbing Aus ATC (RADAR)
04:29AM -31.8167 115.5588 13° North 143 165 18,300 780 Climbing Aus ATC (RADAR)
04:30AM -31.7940 115.5643 12° North 142 163 18,800 660 Climbing Aus ATC (RADAR)
04:31AM -31.7374 115.5792 13° North 147 169 19,700 660 Climbing Aus ATC (RADAR)
04:31AM -31.7273 115.5815 11° North 148 170 19,900 600 Climbing Aus ATC (RADAR)
04:32AM -31.7040 115.5877 13° North 147 169 20,200 540 Climbing Aus ATC (RADAR)
04:33AM -31.6625 115.5981 12° North 155 178 20,800 600 Climbing Aus ATC (RADAR)
04:33AM -31.6380 115.6043 12° North 156 180 21,200 660 Climbing Aus ATC (RADAR)
04:34AM -31.5993 115.6142 12° North 158 182 21,800 600 Climbing Aus ATC (RADAR)
04:35AM -31.5523 115.6263 12° North 161 185 22,500 660 Climbing Aus ATC (RADAR)
04:36AM -31.5274 115.6326 12° North 160 184 22,900 600 Climbing Aus ATC (RADAR)
04:36AM -31.5165 115.6355 13° North 161 185 23,000 480 Climbing Aus ATC (RADAR)
04:37AM -31.4910 115.6419 12° North 162 186 23,300 540 Climbing Aus ATC (RADAR)
04:38AM -31.4361 115.6558 12° North 162 186 24,000 600 Climbing Aus ATC (RADAR)
04:39AM -31.4101 115.6623 12° North 165 190 24,400 600 Climbing Aus ATC (RADAR)
04:39AM -31.3762 115.6708 12° North 166 191 24,800 300 Climbing Aus ATC (RADAR)
04:40AM -31.3378 115.6804 12° North 174 200 24,900 60 Climbing Aus ATC (RADAR)
04:41AM -31.3075 115.6880 12° North 190 219 24,900  Level Aus ATC (RADAR)
04:41AM -31.2938 115.6912 11° North 196 226 24,900  Level Aus ATC (RADAR)
04:42AM -31.2612 115.6998 13° North 206 237 24,900  Level Aus ATC (RADAR)
04:43AM -31.2078 115.7134 12° North 215 247 24,900  Level Aus ATC (RADAR)
04:43AM -31.1726 115.7225 12° North 221 254 24,900  Level Aus ATC (RADAR)
04:44AM -31.1110 115.7382 12° North 231 266 24,900  Level Aus ATC (RADAR)
04:44AM -31.0957 115.7421 12° North 228 262 24,900  Level Aus ATC (RADAR)
04:45AM -31.0591 115.7511 12° North 231 266 24,900  Level Aus ATC (RADAR)
04:46AM -30.9901 115.7688 12° North 233 268 24,900  Level Aus ATC (RADAR)
04:46AM -30.9740 115.7726 12° North 235 270 24,900  Level Aus ATC (RADAR)
04:47AM -30.9367 115.7819 12° North 236 272 24,900  Level Aus ATC (RADAR)
04:48AM -30.8779 115.7971 13° North 237 273 24,900  Level Aus ATC (RADAR)
04:48AM -30.8405 115.8057 11° North 236 272 24,900  Level Aus ATC (RADAR)
04:49AM -30.7822 115.8209 13° North 234 269 24,900  Level Aus ATC (RADAR)
04:50AM -30.7661 115.8248 12° North 236 272 24,900  Level Aus ATC (RADAR)
04:50AM -30.7289 115.8339 12° North 236 272 24,900  Level Aus ATC (RADAR)
04:51AM -30.6543 115.8522 12° North 234 269 24,900  Level Aus ATC (RADAR)
04:52AM -30.6382 115.8571 15° North 236 272 24,900  Level Aus ATC (RADAR)
04:52AM -30.6008 115.8660 11° North 236 272 24,900  Level Aus ATC (RADAR)
04:53AM -30.5476 115.8792 12° North 235 270 24,900  Level Aus ATC (RADAR)
04:54AM -30.5050 115.8894 12° North 236 272 24,900  Level Aus ATC (RADAR)
04:55AM -30.4463 115.9047 13° North 235 270 24,900  Level Aus ATC (RADAR)
04:55AM -30.4089 115.9131 11° North 234 269 24,900  Level Aus ATC (RADAR)
04:57AM -30.3054 115.9392 12° North 226 260 24,900  Level Aus ATC (RADAR)
04:57AM -30.2901 115.9421 North 225 259 24,900  Level Aus ATC (RADAR)
04:58AM -30.2554 115.9516 13° North 219 252 24,900  Level Aus ATC (RADAR)
04:58AM -30.2114 115.9625 12° North 215 247 24,900  Level Aus ATC (RADAR)
04:59AM -30.1769 115.9703 11° North 216 249 24,900  Level Aus ATC (RADAR)
05:00AM -30.1273 115.9841 13° North 221 254 24,900  Level Aus ATC (RADAR)
05:00AM -30.1120 115.9867 North 222 255 24,900  Level Aus ATC (RADAR)
05:01AM -30.0364 116.0050 12° North 224 258 24,900  Level Aus ATC (RADAR)
05:02AM -30.0160 116.0096 11° North 224 258 24,900  Level Aus ATC (RADAR)
05:02AM -29.9803 116.0191 13° North 227 261 24,900  Level Aus ATC (RADAR)
05:03AM -29.9291 116.0318 12° North 226 260 24,900  Level Aus ATC (RADAR)
05:04AM -29.8931 116.0409 12° North 227 261 24,900  Level Aus ATC (RADAR)
05:05AM -29.8315 116.0553 11° North 225 259 24,900  Level Aus ATC (RADAR)
05:05AM -29.7951 116.0653 14° North 230 265 24,900  Level Aus ATC (RADAR)
05:06AM -29.7231 116.0821 11° North 229 264 24,900  Level Aus ATC (RADAR)
05:07AM -29.7078 116.0858 12° North 227 261 24,900  Level Aus ATC (RADAR)
05:07AM -29.6716 116.0942 11° North 226 260 24,900  Level Aus ATC (RADAR)
05:08AM -29.6144 116.1087 12° North 229 264 24,900  Level Aus ATC (RADAR)
05:09AM -29.5776 116.1176 12° North 231 266 24,900  Level Aus ATC (RADAR)
05:10AM -29.5193 116.1323 12° North 235 270 24,900  Level Aus ATC (RADAR)
05:10AM -29.5033 116.1345 North 234 269 24,900  Level Aus ATC (RADAR)
05:10AM -29.4710 116.1426 12° North 237 273 24,900  Level Aus ATC (RADAR)
05:11AM -29.4025 116.1594 12° North 232 267 24,900  Level Aus ATC (RADAR)
05:12AM -29.3808 116.1645 12° North 236 272 24,900  Level Aus ATC (RADAR)
05:12AM -29.3439 116.1733 12° North 233 268 24,900  Level Aus ATC (RADAR)
05:13AM -29.2854 116.1874 12° North 234 269 24,900  Level Aus ATC (RADAR)
05:15AM -29.1781 116.2143 12° North 239 275 24,900  Level Aus ATC (RADAR)
05:16AM -29.1403 116.2238 12° North 239 275 24,900  Level Aus ATC (RADAR)
05:17AM -29.0589 116.2422 11° North 241 277 24,900  Level Aus ATC (RADAR)
05:17AM -29.0426 116.2462 12° North 241 277 24,900  Level Aus ATC (RADAR)
05:18AM -29.0045 116.2553 12° North 242 278 24,900  Level Aus ATC (RADAR)
05:19AM -28.9449 116.2721 14° North 242 278 24,900  Level Aus ATC (RADAR)
05:19AM -28.9013 116.2801 North 240 276 24,900 60 Level Aus ATC (RADAR)
05:20AM -28.8469 116.2915 10° North 239 275 25,000 60 Climbing Aus ATC (RADAR)
05:21AM -28.8089 116.3032 15° North 243 280 25,000  Level Aus ATC (RADAR)
05:22AM -28.7319 116.3173 North 242 278 25,000  Level Aus ATC (RADAR)
05:22AM -28.7158 116.3225 16° North 241 277 25,000  Level Aus ATC (RADAR)
05:23AM -28.6778 116.3330 14° North 241 277 25,000  Level Aus ATC (RADAR)
05:24AM -28.5903 116.3536 12° North 241 277 25,000  Level Aus ATC (RADAR)
05:25AM -28.5125 116.3704 11° North 244 281 25,000  Level Aus ATC (RADAR)
05:26AM -28.4301 116.3923 13° North 242 278 25,000  Level Aus ATC (RADAR)
05:27AM -28.3916 116.4014 12° North 243 280 25,000  Level Aus ATC (RADAR)
05:27AM -28.3753 116.4048 11° North 241 277 25,000  Level Aus ATC (RADAR)
05:28AM -28.3372 116.4121 10° North 239 275 25,000  Level Aus ATC (RADAR)
05:29AM -28.2771 116.4280 13° North 241 277 25,000  Level Aus ATC (RADAR)
05:32AM -28.0582 116.4913 12° North 25,000  Level Aus ATC (Calculated)
05:34AM -27.9896 116.4787 351° North  Level FlightAware Approximate
05:34AM -27.9457 116.5178 12° North 25,000  Level Aus ATC (Calculated)
05:35AM -27.9457 116.5178 12° North 25,000  Level Aus ATC (Calculated)
05:37AM -27.8314 116.4706 340° North  Level FlightAware Approximate
05:37AM -27.8368 116.5434 12° North 25,000  Level Aus ATC (Calculated)
05:38AM -27.7717 116.4459 340° North  Level FlightAware Approximate
05:38AM -27.7312 116.5681 12° North 25,000  Level Aus ATC (Calculated)
05:39AM -27.7517 116.4450 314° West  Level FlightAware Approximate
05:40AM -27.7398 116.4585 265° West  Level FlightAware Approximate
05:41AM -27.7261 116.4379 14° North  Level FlightAware Approximate
05:42AM -27.6644 116.4549 14° North  Level FlightAware Approximate
05:43AM -27.6027 116.4719 14° North  Level FlightAware Approximate
05:44AM -27.5410 116.4888 14° North  Level FlightAware Approximate
05:45AM -27.4793 116.5058 14° North  Level FlightAware Approximate
05:46AM -27.4176 116.5227 14° North  Level FlightAware Approximate
05:47AM -27.3559 116.5396 14° North  Level FlightAware Approximate
05:48AM -27.2942 116.5565 14° North  Level FlightAware Approximate
05:49AM -27.2325 116.5733 14° North  Level FlightAware Approximate
05:50AM -27.1707 116.5902 14° North  Level FlightAware Approximate
05:51AM -27.1090 116.6070 14° North  Level FlightAware Approximate
05:52AM -27.0473 116.6238 14° North  Level FlightAware Approximate
05:53AM -26.9856 116.6406 14° North  Level FlightAware Approximate
05:54AM -26.9238 116.6573 14° North  Level FlightAware Approximate
05:55AM -26.8621 116.6741 14° North  Level FlightAware Approximate
05:56AM -26.8004 116.6908 14° North  Level FlightAware Approximate
05:57AM -26.7387 116.7075 14° North  Level FlightAware Approximate
05:58AM -26.6769 116.7242 14° North  Level FlightAware Approximate
05:59AM -26.6152 116.7409 14° North  Level FlightAware Approximate
06:00AM -26.5534 116.7575 14° North  Level FlightAware Approximate
06:01AM -26.4917 116.7742 14° North  Level FlightAware Approximate
06:02AM -26.4300 116.7908 14° North  Level FlightAware Approximate
06:03AM -26.3682 116.8074 14° North  Level FlightAware Approximate
06:04AM -26.3065 116.8240 14° North  Level FlightAware Approximate
06:05AM -26.2447 116.8405 14° North  Level FlightAware Approximate
06:06AM -26.1830 116.8571 14° North  Level FlightAware Approximate
06:06AM -25.8168 117.0234 14° North 283 326 25,100  Level Aus ATC (RADAR)
06:08AM -25.7041 117.0368 North 246 283 25,100  Level Aus ATC (RADAR)
06:08AM -25.6870 117.0388 North 245 282 25,100  Level Aus ATC (RADAR)
06:09AM -25.6425 117.0488 11° North 245 282 25,100  Level Aus ATC (RADAR)
06:10AM -25.5758 117.0638 11° North 244 281 25,100  Level Aus ATC (RADAR)
06:10AM -25.5364 117.0711 10° North 245 282 25,100  Level Aus ATC (RADAR)
06:11AM -25.4809 117.0844 12° North 245 282 25,100  Level Aus ATC (RADAR)
06:12AM -25.4416 117.0929 11° North 246 283 25,100  Level Aus ATC (RADAR)
06:13AM -25.3458 117.1142 11° North 248 285 25,100  Level Aus ATC (RADAR)
06:13AM -25.3289 117.1182 12° North 248 285 25,100  Level Aus ATC (RADAR)
06:14AM -25.2838 117.1288 12° North 248 285 25,100  Level Aus ATC (RADAR)
06:15AM -25.2158 117.1436 11° North 248 285 25,100  Level Aus ATC (RADAR)
06:16AM -25.1760 117.1520 11° North 248 285 25,100  Level Aus ATC (RADAR)
06:16AM -25.1139 117.1660 11° North 248 285 25,100  Level Aus ATC (RADAR)
06:18AM -25.0122 117.1892 12° North 246 283 25,100  Level Aus ATC (RADAR)
06:18AM -24.9788 117.1964 11° North 245 282 25,100  Level Aus ATC (RADAR)
06:19AM -24.9456 117.2059 15° North 245 282 25,100  Level Aus ATC (RADAR)
06:20AM -24.9074 117.2188 17° North 246 283 25,100  Level Aus ATC (RADAR)
06:20AM -24.8582 117.2354 17° North 246 283 25,100  Level Aus ATC (RADAR)
06:21AM -24.8197 117.2475 16° North 246 283 25,100  Level Aus ATC (RADAR)
06:22AM -24.7487 117.2703 16° North 245 282 25,100  Level Aus ATC (RADAR)
06:23AM -24.6666 117.2969 16° North 246 283 25,100  Level Aus ATC (RADAR)
06:23AM -24.6501 117.3021 16° North 247 284 25,100  Level Aus ATC (RADAR)
06:24AM -24.6116 117.3145 16° North 247 284 25,100  Level Aus ATC (RADAR)
06:25AM -24.5450 117.3361 16° North 249 287 25,100  Level Aus ATC (RADAR)
06:26AM -24.5057 117.3480 15° North 250 288 25,100  Level Aus ATC (RADAR)
06:27AM -24.4442 117.3679 16° North 251 289 25,100  Level Aus ATC (RADAR)
06:27AM -24.4052 117.3810 17° North 251 289 25,100  Level Aus ATC (RADAR)
06:29AM -24.2882 117.4182 16° North 249 287 25,100  Level Aus ATC (RADAR)
06:29AM -24.2716 117.4234 16° North 249 287 25,100  Level Aus ATC (RADAR)
06:30AM -24.2105 117.4425 16° North 248 285 25,100  Level Aus ATC (RADAR)
06:30AM -24.1941 117.4483 18° North 247 284 25,100  Level Aus ATC (RADAR)
06:31AM -24.1611 117.4584 16° North 246 283 25,100  Level Aus ATC (RADAR)
06:32AM -24.1006 117.4777 16° North 246 283 25,100  Level Aus ATC (RADAR)
06:32AM -24.0621 117.4904 17° North 247 284 25,100  Level Aus ATC (RADAR)
06:33AM -23.9853 117.5143 16° North 245 282 25,100  Level Aus ATC (RADAR)
06:34AM -23.9689 117.5197 17° North 245 282 25,100  Level Aus ATC (RADAR)
06:34AM -23.9252 117.5338 16° North 245 282 25,100  Level Aus ATC (RADAR)
06:35AM -23.8490 117.5580 16° North 244 281 25,100  Level Aus ATC (RADAR)
06:36AM -23.7835 117.5786 16° North 244 281 25,100  Level Aus ATC (RADAR)
06:37AM -23.7291 117.5957 16° North 244 281 25,100  Level Aus ATC (RADAR)
06:38AM -23.6689 117.6151 16° North 245 282 25,100  Level Aus ATC (RADAR)
06:38AM -23.6525 117.6202 16° North 245 282 25,100  Level Aus ATC (RADAR)
06:39AM -23.6141 117.6325 16° North 245 282 25,100  Level Aus ATC (RADAR)
06:40AM -23.5483 117.6533 16° North 245 282 25,100  Level Aus ATC (RADAR)
06:41AM -23.5100 117.6654 16° North 245 282 25,100  Level Aus ATC (RADAR)
06:41AM -23.4553 117.6829 16° North 245 282 25,100  Level Aus ATC (RADAR)
06:42AM -23.4170 117.6952 16° North 245 282 25,100  Level Aus ATC (RADAR)
06:43AM -23.3515 117.7166 17° North 245 282 25,100  Level Aus ATC (RADAR)
06:44AM -23.3134 117.7296 17° North 245 282 25,100  Level Aus ATC (RADAR)
06:44AM -23.2970 117.7352 17° North 245 282 25,100  Level Aus ATC (RADAR)
06:44AM -23.2574 117.7485 17° North 252 290 25,100  Level Aus ATC (RADAR)
06:45AM -23.1954 117.7665 15° North 247 284 25,100  Level Aus ATC (RADAR)
06:46AM -23.1624 117.7759 15° North 244 281 25,100  Level Aus ATC (RADAR)
06:47AM -23.1023 117.7939 15° North 243 280 25,100  Level Aus ATC (RADAR)
06:47AM -23.0860 117.7989 16° North 243 280 25,100  Level Aus ATC (RADAR)
06:48AM -23.0480 117.8106 16° North 243 280 25,100 -120 Level Aus ATC (RADAR)
06:49AM -22.9879 117.8293 16° North 243 280 25,000 -60 Descending Aus ATC (RADAR)
06:49AM -22.9333 117.8462 16° North 244 281 25,000  Level Aus ATC (RADAR)
06:50AM -22.8786 117.8636 16° North 245 282 25,000  Level Aus ATC (RADAR)
06:50AM -22.8621 117.8685 15° North 245 282 25,000  Level Aus ATC (RADAR)
06:51AM -22.8183 117.8821 16° North 244 281 25,000  Level Aus ATC (RADAR)
06:52AM -22.7635 117.8991 16° North 244 281 25,000  Level Aus ATC (RADAR)
06:53AM -22.7253 117.9111 16° North 243 280 25,000  Level Aus ATC (RADAR)
06:54AM -22.6544 117.9333 16° North 244 281 25,000  Level Aus ATC (RADAR)
06:54AM -22.6379 117.9382 15° North 244 281 25,000  Level Aus ATC (RADAR)
06:54AM -22.5998 117.9503 16° North 244 281 25,000  Level Aus ATC (RADAR)
06:55AM -22.5398 117.9688 16° North 243 280 25,000  Level Aus ATC (RADAR)
06:56AM -22.4907 117.9840 16° North 243 280 25,000  Level Aus ATC (RADAR)
06:57AM -22.4304 118.0023 16° North 244 281 25,000  Level Aus ATC (RADAR)
06:58AM -22.3921 118.0145 16° North 244 281 25,000  Level Aus ATC (RADAR)
06:59AM -22.3156 118.0387 16° North 244 281 25,000  Level Aus ATC (RADAR)
06:59AM -22.2991 118.0433 15° North 243 280 25,000  Level Aus ATC (RADAR)
07:00AM -22.2612 118.0552 16° North 243 280 25,000  Level Aus ATC (RADAR)
07:00AM -22.2067 118.0720 16° North 242 278 25,000  Level Aus ATC (RADAR)
07:01AM -22.1685 118.0837 16° North 242 278 25,000  Level Aus ATC (RADAR)
07:02AM -22.1140 118.1003 16° North 243 280 25,000  Level Aus ATC (RADAR)
07:02AM -22.0977 118.1055 16° North 244 281 25,000  Level Aus ATC (RADAR)
07:03AM -22.0590 118.1171 16° North 244 281 25,000  Level Aus ATC (RADAR)
07:04AM -21.9658 118.1463 16° North 244 281 25,000  Level Aus ATC (RADAR)
07:05AM -21.9160 118.1619 16° North 245 282 25,000  Level Aus ATC (RADAR)
07:06AM -21.8334 118.1874 16° North 245 282 25,000  Level Aus ATC (RADAR)
07:07AM -21.7893 118.2007 16° North 245 282 25,000  Level Aus ATC (RADAR)
07:07AM -21.7452 118.2143 16° North 245 282 25,000  Level Aus ATC (RADAR)
07:08AM -21.7067 118.2261 16° North 245 282 25,000  Level Aus ATC (RADAR)
07:09AM -21.6407 118.2463 16° North 245 282 25,000  Level Aus ATC (RADAR)
07:09AM -21.6242 118.2513 16° North 245 282 25,000  Level Aus ATC (RADAR)
07:10AM -21.5856 118.2630 16° North 245 282 25,000  Level Aus ATC (RADAR)
07:11AM -21.5307 118.2800 16° North 244 281 25,000  Level Aus ATC (RADAR)
07:11AM -21.4924 118.2917 16° North 244 281 25,000  Level Aus ATC (RADAR)
07:12AM -21.4375 118.3084 16° North 244 281 25,000  Level Aus ATC (RADAR)
07:12AM -21.4211 118.3135 16° North 243 280 25,000 -840 Level Aus ATC (RADAR)
07:13AM -21.3825 118.3258 16° North 246 283 24,300 -1,380 Descending Aus ATC (RADAR)
07:14AM -21.3100 118.3476 16° North 267 307 22,900 -1,380 Descending Aus ATC (RADAR)
07:14AM -21.2916 118.3531 16° North 270 311 22,600 -1,320 Descending Aus ATC (RADAR)
07:15AM -21.2484 118.3662 16° North 271 312 21,800 -1,440 Descending Aus ATC (RADAR)
07:16AM -21.1750 118.3885 16° North 270 311 20,400 -1,440 Descending Aus ATC (RADAR)
07:16AM -21.1563 118.3940 15° North 272 313 20,000 -1,440 Descending Aus ATC (RADAR)
07:17AM -21.1126 118.4078 16° North 275 316 19,200 -1,440 Descending Aus ATC (RADAR)
07:17AM -21.0757 118.4194 16° North 275 316 18,500 -1,440 Descending Aus ATC (RADAR)
07:20AM -20.9014 118.4705 16° North 300 -5,940 Descending Aus ATC (Calculated)
07:22AM -20.8199 118.4948 16° North  Level Estimated
07:23AM -20.7587 118.5131 16° North  Level Estimated
07:24AM -20.6975 118.5313 16° North  Level Estimated
07:24AM -20.6400 118.5468 141° Southeast 300  Level Aus ATC (Calculated)
07:24AM -20.6400 118.5468 35° Northeast 300  Level Aus ATC (Calculated)
07:25AM -20.6364 118.5495 16° North  Level Estimated
07:26AM -20.5178 118.5839 16° North  Level Estimated
07:27AM -20.4567 118.6024 16° North  Level Estimated
07:28AM -20.3957 118.6210 16° North  Level Estimated
07:28AM -20.3778 118.6265 280° West  Level Aus ATC (Calculated)
07:29AM -20.3778 118.6264 16° North  Level Estimated
07:30AM -20.3778 118.6264 282° West  Level Estimated
07:31AM -20.3778 118.6264 335° Northwest  Level Estimated
07:32AM -20.3778 118.6264 335° Northwest  Level Estimated
07:33AM -20.3778 118.6264 335° Northwest  Level Estimated